If you wish to contribute or participate in the discussions about articles you are invited to join SKYbrary as a registered user

 Actions

Maputo International Airport

From SKYbrary Wiki

FQMA
Airport
ICAO: FQMA – IATA: MPM
Summary
Name Maputo International Airport
Region Africa
Territory Mozambique MZ.gif
Location Maputo
Serving Maputo
Elevation 44.196 m <br />145 ft <br />145 ft44.196 m <br />
Coordinates 25° 55' 3.36" S, 32° 34' 29.83" E
Runways
Designator Length Width Surface ROPS
5/23 3660 m12,007.874 ft <br /> 45 m147.638 ft <br /> ASP yes/yes
10/28 1700 m5,577.428 ft <br /> 45 m147.638 ft <br /> ASP yes/yes


METAR
Observation FQMA 172300Z 21016KT 5000 -DZ BKN010 OVC020 FEW025CB 17/16 Q1019 RMK CB TO S/E/W
Station Maputo / Mavalane
Date/Time 17 October 2021 23:00:00
Wind direction 210°
Wind speed 16 kts
Lowest cloud amount broken clouds
Temperature 17°C
Dew point 16°C
Humidity 93%
QNH 1019 hPa
Weather condition n/a

Maputo International Airport

ICAO: FQMA IATA: MPM

Description

International airport serving capital of Mozambique.

Climatology

Tropical Savanna climate (Köppen climate classification Aw) - monthly mean temperature above 18°C64.4 °F <br />291.15 K <br />524.07 °R <br /> in every month of the year and a pronounced dry season.

Maps

Terrain

Loading map...

Airport Layout

Loading map...


Accidents & Serious Incidents at or in vicinity of FQMA

None on SKYbrary